createdAt,value
2023-04-17T00:01:08.884Z,97024.13
2023-04-17T00:03:37.901Z,97028.38
2023-04-17T00:06:06.627Z,97021.88
2023-04-17T00:08:36.361Z,97030.00
2023-04-17T00:11:08.418Z,97025.75
2023-04-17T00:13:38.476Z,97023.81
2023-04-17T00:16:06.685Z,97027.22
2023-04-17T00:18:34.498Z,97020.22
2023-04-17T00:21:02.248Z,97022.69
2023-04-17T00:23:36.627Z,97018.28
2023-04-17T04:40:21.557Z,97039.31
2023-04-17T04:42:49.583Z,97032.50
2023-04-17T04:45:17.448Z,97027.31
2023-04-17T04:47:44.997Z,97030.91
2023-04-17T04:50:12.513Z,97038.03
2023-04-17T04:52:40.129Z,97033.50
2023-04-17T04:55:08.537Z,97035.78
2023-04-17T04:57:37.404Z,97036.44
2023-04-17T05:00:08.662Z,97041.00
2023-04-17T05:02:37.022Z,97041.31
2023-04-17T05:05:05.265Z,97039.88
2023-04-17T05:07:32.890Z,97050.13
2023-04-17T05:10:00.425Z,97055.13
2023-04-17T05:12:27.947Z,97053.19
2023-04-17T05:14:56.888Z,97057.59
2023-04-17T05:17:24.623Z,97053.38
2023-04-17T05:19:52.239Z,97056.94
2023-04-17T05:22:19.820Z,97055.31
2023-04-17T05:24:47.484Z,97048.47
2023-04-17T05:27:15.156Z,97055.31
2023-04-17T05:29:42.804Z,97064.88
2023-04-17T05:32:11.859Z,97066.03
2023-04-17T05:34:39.623Z,97066.03
2023-04-17T05:37:07.904Z,97060.66
2023-04-17T05:39:36.016Z,97065.06
2023-04-17T05:42:03.599Z,97065.06
2023-04-17T05:44:32.093Z,97067.66
2023-04-17T05:47:00.683Z,97065.88
2023-04-17T05:49:30.111Z,97062.47
2023-04-17T05:51:57.736Z,97067.00
2023-04-17T05:54:25.428Z,97064.41
2023-04-17T05:56:53.084Z,97070.28
2023-04-17T05:59:21.137Z,97071.88
2023-04-17T06:01:49.055Z,97064.06
2023-04-17T06:04:18.253Z,97063.13
2023-04-17T06:06:47.591Z,97070.59
2023-04-17T06:09:15.879Z,97073.03
2023-04-17T06:11:43.465Z,97072.22
2023-04-17T06:14:11.273Z,97073.84
2023-04-17T06:16:38.789Z,97076.31
2023-04-17T06:19:06.469Z,97083.94
2023-04-17T06:21:34.100Z,97081.31
2023-04-17T06:24:03.006Z,97080.38
2023-04-17T06:26:30.636Z,97084.91
2023-04-17T06:28:58.347Z,97085.88
2023-04-17T06:31:26.387Z,97091.06
2023-04-17T06:33:53.975Z,97090.59
2023-04-17T06:36:21.491Z,97089.78
2023-04-17T06:38:49.084Z,97096.94
2023-04-17T06:41:17.975Z,97091.72
2023-04-17T06:43:45.549Z,97089.13
2023-04-17T06:46:13.138Z,97093.34
2023-04-17T06:48:40.685Z,97087.34
2023-04-17T06:51:08.241Z,97096.59
2023-04-17T06:53:35.972Z,97093.53
2023-04-17T06:56:03.530Z,97098.44
2023-04-17T06:58:33.158Z,97098.09
2023-04-17T07:01:00.686Z,97099.72
2023-04-17T07:03:29.612Z,97101.50
2023-04-17T07:05:57.281Z,97104.13
2023-04-17T07:08:24.848Z,97103.81
2023-04-17T07:10:52.451Z,97099.91
2023-04-17T07:13:19.983Z,97096.00
2023-04-17T07:15:54.345Z,97102.38
2023-04-17T07:18:22.541Z,97105.47
2023-04-17T07:20:50.417Z,97105.47
2023-04-17T07:23:18.394Z,97106.09
2023-04-17T07:25:45.923Z,97106.47
2023-04-17T07:28:14.117Z,97110.69
2023-04-17T07:30:42.495Z,97105.66
2023-04-17T07:33:11.469Z,97108.91
2023-04-17T07:35:39.051Z,97106.78
2023-04-17T07:38:06.612Z,97118.03
2023-04-17T07:40:36.767Z,97113.63
2023-04-17T07:43:04.478Z,97118.84
2023-04-17T07:45:33.399Z,97127.63
2023-04-17T07:48:01.218Z,97124.38
2023-04-17T07:50:30.316Z,97125.34
2023-04-17T07:52:57.895Z,97117.84
2023-04-17T07:55:25.384Z,97124.06
2023-04-17T07:57:53.018Z,97123.06
2023-04-17T08:00:21.631Z,97127.13
2023-04-17T08:02:49.474Z,97129.25
2023-04-17T08:05:17.265Z,97129.75
2023-04-17T08:07:46.240Z,97130.75
2023-04-17T08:10:13.799Z,97134.81
2023-04-17T08:12:41.457Z,97124.72
2023-04-17T08:15:09.979Z,97135.63
2023-04-17T08:17:37.574Z,97136.09
2023-04-17T08:20:11.900Z,97135.78
2023-04-17T08:22:41.174Z,97142.63
2023-04-17T08:25:11.730Z,97150.28
2023-04-17T08:27:40.787Z,97148.47
2023-04-17T08:30:12.412Z,97151.75
2023-04-17T08:32:41.921Z,97157.59
2023-04-17T08:35:11.372Z,97151.09
2023-04-17T08:37:39.038Z,97156.97
2023-04-17T08:40:09.365Z,97155.31
2023-04-17T08:42:39.552Z,97162.19
2023-04-17T08:45:09.564Z,97159.41
2023-04-17T08:47:37.559Z,97154.69
2023-04-17T08:50:08.862Z,97162.19
2023-04-17T08:52:39.890Z,97154.03
2023-04-17T08:55:08.163Z,97152.09
2023-04-17T08:57:36.408Z,97156.97
2023-04-17T09:00:12.026Z,97155.00
2023-04-17T09:02:56.365Z,97155.66
2023-04-17T09:05:24.924Z,97156.31
2023-04-17T09:08:08.278Z,97157.63
2023-04-17T09:10:37.280Z,97155.31
2023-04-17T09:13:05.214Z,97157.94
2023-04-17T09:15:35.169Z,97157.94
2023-04-17T09:18:03.467Z,97150.09
2023-04-17T09:20:31.156Z,97148.13
2023-04-17T09:23:01.872Z,97152.03
2023-04-17T09:25:30.276Z,97145.81
2023-04-17T09:28:11.479Z,97151.66
2023-04-17T09:30:41.202Z,97155.84
2023-04-17T09:33:10.402Z,97146.69
2023-04-17T09:35:40.182Z,97147.59
2023-04-17T09:38:08.053Z,97151.09
2023-04-17T09:40:40.638Z,97148.41
2023-04-17T09:43:10.395Z,97152.03
2023-04-17T09:45:42.919Z,97153.72
2023-04-17T09:48:12.852Z,97149.31
2023-04-17T09:50:41.233Z,97149.19
2023-04-17T09:53:09.729Z,97154.94
2023-04-17T09:55:38.048Z,97150.88
2023-04-17T09:58:07.936Z,97155.44
2023-04-17T10:00:37.737Z,97156.94
2023-04-17T10:03:08.416Z,97156.47
2023-04-17T10:05:36.720Z,97162.00
2023-04-17T10:08:04.985Z,97156.78
2023-04-17T10:10:36.581Z,97151.91
2023-04-17T10:13:08.293Z,97150.75
2023-04-17T10:15:36.711Z,97153.00
2023-04-17T10:18:23.631Z,97149.88
2023-04-17T10:20:53.227Z,97148.75
2023-04-17T10:23:32.789Z,97151.16
2023-04-17T10:26:43.035Z,97145.63
2023-04-17T10:29:12.666Z,97142.00
2023-04-17T10:32:20.356Z,97141.38
2023-04-17T10:34:49.564Z,97143.81
2023-04-17T10:37:17.136Z,97148.88
2023-04-17T10:39:56.987Z,97145.28
2023-04-17T10:42:25.657Z,97138.25
2023-04-17T10:44:59.392Z,97141.34
2023-04-17T10:47:33.449Z,97129.41
2023-04-17T10:50:03.907Z,97125.91
2023-04-17T16:59:37.684Z,97088.56
2023-04-17T17:02:05.259Z,97083.81
2023-04-17T17:12:55.187Z,97093.00
2023-04-17T17:15:24.349Z,97111.25
2023-04-17T17:17:51.842Z,97097.78
2023-04-17T17:20:20.254Z,97096.31
2023-04-17T17:22:47.736Z,97095.97
2023-04-17T17:25:15.226Z,97097.94
2023-04-17T17:27:42.748Z,97103.47
2023-04-17T17:30:10.892Z,97101.84
2023-04-17T17:32:39.801Z,97099.88
2023-04-17T17:35:08.489Z,97102.19
2023-04-17T17:37:35.996Z,97105.75
2023-04-17T17:40:04.299Z,97105.09
2023-04-17T17:42:31.952Z,97107.03
2023-04-17T17:44:59.480Z,97108.84
2023-04-17T17:47:27.046Z,97103.47
2023-04-17T17:49:55.919Z,97100.72
2023-04-17T17:52:23.468Z,97108.53
2023-04-17T17:54:51.029Z,97103.16
2023-04-17T17:57:18.692Z,97108.38
2023-04-17T17:59:46.375Z,97111.13
2023-04-17T18:02:14.004Z,97111.94
2023-04-17T18:04:41.918Z,97115.22
2023-04-17T18:07:10.900Z,97115.06
2023-04-17T18:09:38.406Z,97108.38
2023-04-17T18:12:06.867Z,97114.88
2023-04-17T18:14:34.373Z,97124.19
2023-04-17T18:17:01.883Z,97127.44
2023-04-17T18:19:29.420Z,97131.22
2023-04-17T18:21:57.141Z,97126.97
2023-04-17T18:24:26.139Z,97129.56
2023-04-17T18:26:53.620Z,97129.91
2023-04-17T18:29:21.151Z,97126.16
2023-04-17T18:31:51.066Z,97128.44
2023-04-17T18:34:18.819Z,97132.22
2023-04-17T18:36:46.338Z,97133.50
2023-04-17T18:39:14.670Z,97133.84
2023-04-17T18:41:43.520Z,97139.56
2023-04-17T18:44:11.253Z,97141.66
2023-04-17T18:46:38.912Z,97138.41
2023-04-17T18:49:06.488Z,97144.75
2023-04-17T18:51:34.004Z,97140.69
2023-04-17T18:54:02.665Z,97147.84
2023-04-17T18:56:30.265Z,97149.81
2023-04-17T18:58:59.140Z,97156.16
2023-04-17T19:01:26.679Z,97158.75
2023-04-17T19:03:54.203Z,97162.47
2023-04-17T19:06:21.693Z,97158.41
2023-04-17T19:08:49.195Z,97164.44
2023-04-17T19:11:16.721Z,97173.25
2023-04-17T19:13:45.021Z,97163.31
2023-04-17T19:16:13.950Z,97165.44
2023-04-17T19:18:41.456Z,97162.47
2023-04-17T19:21:08.999Z,97165.56
2023-04-17T19:23:37.486Z,97161.50
2023-04-17T19:26:05.059Z,97160.19
2023-04-17T19:28:32.571Z,97157.28
2023-04-17T19:31:00.851Z,97161.16
2023-04-17T19:33:29.882Z,97157.09
2023-04-17T19:35:58.281Z,97157.25
2023-04-17T19:38:27.758Z,97156.78
2023-04-17T19:41:14.394Z,97163.75
2023-04-17T19:43:42.422Z,97159.03
2023-04-17T19:46:10.137Z,97157.88
2023-04-17T19:48:39.118Z,97164.53
2023-04-17T19:51:07.302Z,97170.06
2023-04-17T19:53:35.912Z,97169.56
2023-04-17T19:56:05.748Z,97165.34
2023-04-17T19:58:35.316Z,97162.09
2023-04-17T20:01:03.254Z,97160.44
2023-04-17T20:03:31.774Z,97161.41
2023-04-17T20:06:01.067Z,97152.63
2023-04-17T20:08:28.636Z,97152.31
2023-04-17T20:10:56.123Z,97149.72
2023-04-17T20:13:23.616Z,97148.75
2023-04-17T20:15:51.177Z,97147.94
2023-04-17T20:18:18.795Z,97147.13
2023-04-17T20:20:46.594Z,97146.47
2023-04-17T20:23:15.458Z,97148.75
2023-04-17T20:25:42.969Z,97147.13
2023-04-17T20:28:10.668Z,97143.38
2023-04-17T20:30:38.253Z,97145.53
2023-04-17T20:33:05.944Z,97144.38
2023-04-17T20:35:33.548Z,97140.66
2023-04-17T20:38:01.104Z,97140.94
2023-04-17T20:40:30.151Z,97148.44
2023-04-17T20:42:57.723Z,97136.72
2023-04-17T20:45:25.342Z,97142.53
2023-04-17T20:47:57.071Z,97144.16
2023-04-17T20:50:25.374Z,97141.22
2023-04-17T20:52:52.860Z,97136.03
2023-04-17T20:55:20.843Z,97139.63
2023-04-17T20:57:49.715Z,97135.41
2023-04-17T21:00:17.655Z,97139.63
2023-04-17T21:02:45.889Z,97138.31
2023-04-17T21:05:13.454Z,97132.31
2023-04-17T21:07:40.968Z,97127.75
2023-04-17T21:10:09.411Z,97136.06
2023-04-17T21:12:36.955Z,97129.22
2023-04-17T21:15:06.749Z,97136.88
2023-04-17T21:17:34.409Z,97134.28
2023-04-17T21:20:01.917Z,97122.88
2023-04-17T21:22:29.415Z,97122.72
2023-04-17T21:24:56.930Z,97127.75
2023-04-17T21:27:24.556Z,97124.19
2023-04-17T21:29:52.102Z,97123.41
2023-04-17T21:32:21.109Z,97126.28
2023-04-17T21:34:48.649Z,97121.56
2023-04-17T21:37:16.148Z,97127.75
2023-04-17T21:39:43.696Z,97126.63
2023-04-17T21:42:11.257Z,97125.31
2023-04-17T21:44:38.768Z,97126.13
2023-04-17T21:47:06.390Z,97130.38
2023-04-17T21:49:35.301Z,97133.78
2023-04-17T21:52:02.827Z,97124.31
2023-04-17T21:54:30.356Z,97122.06
2023-04-17T21:56:57.897Z,97127.91
2023-04-17T21:59:25.448Z,97119.13
2023-04-17T22:01:52.996Z,97110.69
2023-04-17T22:04:20.568Z,97114.25
2023-04-17T22:06:51.632Z,97118.31
2023-04-17T22:09:20.432Z,97119.47
2023-04-17T22:11:48.577Z,97119.31
2023-04-17T22:14:16.726Z,97117.84
2023-04-17T22:16:44.551Z,97111.66
2023-04-17T22:19:12.103Z,97111.34
2023-04-17T22:21:39.634Z,97113.94
2023-04-17T22:24:09.634Z,97121.41
2023-04-17T22:26:37.123Z,97112.81
2023-04-17T22:29:04.648Z,97111.53
2023-04-17T22:31:32.301Z,97112.97
2023-04-17T22:33:59.957Z,97110.03
2023-04-17T22:36:27.448Z,97117.50
2023-04-17T22:38:55.070Z,97115.72
2023-04-17T22:41:23.893Z,97113.75
2023-04-17T22:43:51.459Z,97112.75
2023-04-17T22:46:19.041Z,97108.19
2023-04-17T22:48:47.049Z,97114.19
2023-04-17T22:51:15.042Z,97110.28
2023-04-17T22:53:43.876Z,97111.88
2023-04-17T22:56:13.694Z,97114.84
2023-04-17T22:58:42.544Z,97111.63
2023-04-17T23:01:10.102Z,97114.69
2023-04-17T23:03:37.650Z,97114.88
2023-04-17T23:06:07.387Z,97116.84
2023-04-17T23:08:34.873Z,97117.50
2023-04-17T23:11:03.442Z,97108.88
2023-04-17T23:13:31.607Z,97114.41
2023-04-17T23:16:00.774Z,97103.06
2023-04-17T23:18:28.320Z,97108.91
2023-04-17T23:20:55.844Z,97112.16
2023-04-17T23:23:23.360Z,97109.72
2023-04-17T23:25:50.941Z,97105.16
2023-04-17T23:28:18.503Z,97110.53
2023-04-17T23:30:46.083Z,97113.28
2023-04-17T23:33:15.086Z,97109.72
2023-04-17T23:35:42.719Z,97104.50
2023-04-17T23:38:10.407Z,97107.28
2023-04-17T23:40:38.131Z,97100.75
2023-04-17T23:43:06.099Z,97097.97
2023-04-17T23:45:33.776Z,97091.13
2023-04-17T23:48:01.408Z,97095.03
2023-04-17T23:50:30.560Z,97086.88
2023-04-17T23:52:58.159Z,97086.06
2023-04-17T23:55:26.973Z,97084.44
2023-04-17T23:57:54.955Z,97082.47
